createdAt,value
2022-08-09T00:00:57.222Z,89.50
2022-08-09T00:04:05.671Z,89.60
2022-08-09T00:06:17.860Z,89.70
2022-08-09T00:08:52.054Z,89.80
2022-08-09T00:11:24.525Z,89.80
2022-08-09T00:13:53.196Z,89.90
2022-08-09T00:16:26.453Z,89.90
2022-08-09T00:19:09.515Z,90.00
2022-08-09T00:21:43.194Z,90.00
2022-08-09T00:24:24.986Z,90.00
2022-08-09T00:26:56.036Z,90.10
2022-08-09T00:30:16.122Z,90.00
2022-08-09T00:32:12.970Z,90.10
2022-08-09T00:34:53.084Z,90.10
2022-08-09T00:37:20.543Z,90.20
2022-08-09T00:40:13.160Z,90.20
2022-08-09T00:44:14.159Z,90.20
2022-08-09T00:45:22.923Z,90.50
2022-08-09T00:47:50.935Z,90.20
2022-08-09T00:50:18.340Z,90.20
2022-08-09T00:52:45.776Z,90.20
2022-08-09T00:55:32.734Z,90.20
2022-08-09T00:58:00.861Z,90.40
2022-08-09T01:00:28.726Z,90.30
2022-08-09T01:03:22.471Z,90.30
2022-08-09T01:06:17.759Z,90.30
2022-08-09T01:08:57.836Z,90.30
2022-08-09T01:12:05.019Z,90.30
2022-08-09T01:14:57.511Z,90.40
2022-08-09T01:17:35.892Z,90.70
2022-08-09T01:20:06.168Z,90.40
2022-08-09T01:22:55.077Z,90.40
2022-08-09T01:25:25.261Z,90.40
2022-08-09T01:27:57.786Z,90.30
2022-08-09T01:30:28.750Z,90.30
2022-08-09T01:33:05.772Z,90.30
2022-08-09T01:35:52.835Z,90.30
2022-08-09T01:38:27.791Z,90.30
2022-08-09T01:41:05.266Z,90.30
2022-08-09T01:43:50.698Z,90.60
2022-08-09T01:46:32.555Z,90.30
2022-08-09T01:49:10.614Z,90.20
2022-08-09T01:51:54.285Z,90.20
2022-08-09T01:54:37.017Z,90.30
2022-08-09T01:57:20.924Z,90.30
2022-08-09T01:59:52.619Z,90.30
2022-08-09T02:02:32.553Z,90.30
2022-08-09T02:05:05.466Z,90.30
2022-08-09T02:08:41.307Z,90.40
2022-08-09T02:10:51.267Z,90.50
2022-08-09T02:13:21.957Z,90.50
2022-08-09T02:15:56.416Z,90.50
2022-08-09T02:18:28.762Z,90.60
2022-08-09T02:21:00.282Z,90.60
2022-08-09T02:23:42.710Z,90.70
2022-08-09T02:26:24.823Z,90.60
2022-08-09T02:28:59.601Z,90.70
2022-08-09T02:31:39.225Z,90.60
2022-08-09T02:34:25.787Z,90.70
2022-08-09T02:37:05.490Z,90.70
2022-08-09T02:39:43.861Z,90.60
2022-08-09T02:45:08.156Z,90.90
2022-08-09T02:47:57.289Z,90.60
2022-08-09T02:50:39.406Z,90.90
2022-08-09T02:53:25.746Z,90.60
2022-08-09T02:55:59.126Z,90.60
2022-08-09T02:58:37.413Z,90.50
2022-08-09T03:01:11.072Z,90.50
2022-08-09T03:04:17.288Z,90.50
2022-08-09T03:06:29.371Z,90.50
2022-08-09T03:08:58.334Z,90.40
2022-08-09T03:11:29.703Z,90.40
2022-08-09T03:14:16.696Z,90.30
2022-08-09T03:16:48.303Z,90.30
2022-08-09T03:19:58.309Z,90.20
2022-08-09T03:22:12.362Z,90.20
2022-08-09T03:25:06.531Z,90.30
2022-08-09T03:27:47.146Z,90.20
2022-08-09T03:30:29.847Z,90.20
2022-08-09T03:33:18.531Z,90.20
2022-08-09T03:36:12.949Z,90.20
2022-08-09T03:38:41.881Z,90.10
2022-08-09T03:41:15.014Z,90.30
2022-08-09T03:43:51.733Z,90.00
2022-08-09T03:46:33.152Z,89.90
2022-08-09T03:49:08.904Z,89.70
2022-08-09T03:51:55.107Z,89.50
2022-08-09T03:54:31.262Z,89.40
2022-08-09T03:57:12.219Z,89.10
2022-08-09T03:59:55.013Z,89.00
2022-08-09T04:02:26.812Z,88.90
2022-08-09T04:05:06.614Z,88.70
2022-08-09T04:07:53.247Z,88.60
2022-08-09T04:10:28.879Z,88.40
2022-08-09T04:13:03.973Z,88.10
2022-08-09T04:15:40.677Z,88.10
2022-08-09T04:18:21.503Z,87.40
2022-08-09T04:20:51.209Z,85.20
2022-08-09T04:23:23.476Z,83.20
2022-08-09T04:25:53.959Z,82.50
2022-08-09T04:28:30.687Z,81.70
2022-08-09T04:31:08.656Z,80.60
2022-08-09T04:33:47.568Z,80.10
2022-08-09T04:36:25.897Z,79.30
2022-08-09T04:38:54.991Z,78.50
2022-08-09T04:41:24.435Z,77.40
2022-08-09T04:44:05.962Z,77.00
2022-08-09T04:46:58.519Z,76.50
2022-08-09T04:49:40.885Z,75.70
2022-08-09T04:52:22.065Z,74.40
2022-08-09T04:54:58.018Z,73.80
2022-08-09T04:57:27.180Z,73.60
2022-08-09T05:00:16.950Z,73.00
2022-08-09T05:05:32.230Z,71.80
2022-08-09T05:08:18.229Z,71.30
2022-08-09T05:10:45.825Z,70.90
2022-08-09T05:13:14.257Z,70.60
2022-08-09T05:15:47.953Z,70.40
2022-08-09T05:18:39.293Z,70.30
2022-08-09T05:21:13.500Z,70.10
2022-08-09T05:23:58.443Z,69.40
2022-08-09T05:26:36.537Z,68.10
2022-08-09T05:29:22.006Z,67.90
2022-08-09T05:31:58.871Z,68.20
2022-08-09T05:34:31.328Z,67.80
2022-08-09T05:37:04.924Z,67.80
2022-08-09T05:39:43.886Z,67.90
2022-08-09T05:42:17.774Z,68.40
2022-08-09T05:44:51.758Z,67.70
2022-08-09T05:47:24.418Z,67.10
2022-08-09T05:50:25.805Z,67.70
2022-08-09T05:52:43.371Z,67.00
2022-08-09T05:55:21.313Z,65.80
2022-08-09T05:57:56.493Z,66.00
2022-08-09T06:00:26.047Z,66.80
2022-08-09T06:02:56.643Z,66.80
2022-08-09T06:05:31.295Z,66.00
2022-08-09T06:08:19.525Z,65.90
2022-08-09T06:10:55.656Z,66.30
2022-08-09T06:13:23.734Z,65.80
2022-08-09T06:15:52.767Z,65.00
2022-08-09T06:18:25.347Z,65.00
2022-08-09T06:20:57.727Z,65.30
2022-08-09T06:23:58.236Z,65.40
2022-08-09T06:26:20.429Z,66.00
2022-08-09T06:29:00.524Z,65.10
2022-08-09T06:31:39.954Z,63.10
2022-08-09T06:34:22.619Z,62.40
2022-08-09T06:36:59.187Z,63.20
2022-08-09T06:39:48.789Z,62.50
2022-08-09T06:42:19.815Z,62.70
2022-08-09T06:44:51.813Z,63.10
2022-08-09T06:47:23.726Z,62.40
2022-08-09T06:50:13.221Z,61.80
2022-08-09T06:52:45.988Z,62.40
2022-08-09T06:55:22.927Z,62.20
2022-08-09T06:58:02.813Z,62.10
2022-08-09T07:00:51.082Z,62.40
2022-08-09T07:03:28.591Z,61.10
2022-08-09T07:06:04.042Z,61.50
2022-08-09T07:08:34.424Z,61.00
2022-08-09T07:11:03.348Z,61.30
2022-08-09T07:13:31.170Z,61.10
2022-08-09T07:16:42.389Z,61.70
2022-08-09T07:19:00.473Z,61.10
2022-08-09T07:21:31.033Z,60.90
2022-08-09T07:24:01.557Z,62.10
2022-08-09T07:26:32.796Z,62.80
2022-08-09T07:29:11.981Z,62.00
2022-08-09T07:31:45.293Z,61.40
2022-08-09T07:34:20.363Z,62.40
2022-08-09T07:36:51.135Z,62.90
2022-08-09T07:39:40.199Z,61.80
2022-08-09T07:42:08.750Z,61.40
2022-08-09T07:44:52.999Z,62.70
2022-08-09T07:47:23.185Z,61.40
2022-08-09T07:50:04.603Z,61.00
2022-08-09T07:52:37.656Z,61.60
2022-08-09T07:55:09.512Z,61.90
2022-08-09T07:57:37.668Z,62.20
2022-08-09T08:00:35.465Z,61.30
2022-08-09T08:03:04.578Z,61.40
2022-08-09T08:05:53.996Z,62.10
2022-08-09T08:09:00.939Z,62.10
2022-08-09T08:12:09.163Z,60.80
2022-08-09T08:13:57.332Z,60.30
2022-08-09T08:16:29.599Z,60.50
2022-08-09T08:19:03.232Z,60.90
2022-08-09T08:21:32.545Z,59.80
2022-08-09T08:24:18.706Z,60.60
2022-08-09T08:26:56.254Z,60.10
2022-08-09T08:29:27.753Z,60.30
2022-08-09T08:32:03.866Z,59.80
2022-08-09T08:34:34.495Z,60.60
2022-08-09T08:37:02.804Z,59.90
2022-08-09T08:39:38.265Z,60.60
2022-08-09T08:42:11.478Z,59.80
2022-08-09T08:44:39.812Z,59.50
2022-08-09T08:47:13.199Z,58.90
2022-08-09T08:49:48.439Z,59.80
2022-08-09T08:52:53.019Z,59.70
2022-08-09T08:55:10.189Z,59.40
2022-08-09T08:57:38.218Z,59.10
2022-08-09T09:00:20.278Z,58.90
2022-08-09T09:03:04.504Z,58.50
2022-08-09T09:06:00.809Z,58.70
2022-08-09T09:08:40.499Z,58.80
2022-08-09T09:11:13.897Z,58.30
2022-08-09T09:13:56.349Z,58.20
2022-08-09T09:16:33.828Z,58.80
2022-08-09T09:22:16.019Z,57.50
2022-08-09T09:24:45.430Z,57.90
2022-08-09T09:28:03.291Z,56.50
2022-08-09T09:30:39.271Z,56.60
2022-08-09T09:33:16.700Z,56.40
2022-08-09T09:36:03.318Z,57.00
2022-08-09T09:38:49.365Z,55.90
2022-08-09T09:41:33.241Z,56.00
2022-08-09T09:44:12.186Z,56.30
2022-08-09T09:46:51.503Z,56.40
2022-08-09T09:49:32.138Z,55.40
2022-08-09T09:52:33.617Z,53.80
2022-08-09T09:55:16.595Z,54.40
2022-08-09T09:58:19.929Z,53.70
2022-08-09T10:00:53.896Z,54.50
2022-08-09T10:03:57.524Z,53.60
2022-08-09T10:06:43.048Z,53.30
2022-08-09T10:09:23.234Z,53.30
2022-08-09T10:12:14.436Z,52.50
2022-08-09T10:14:50.069Z,53.50
2022-08-09T10:17:38.979Z,52.90
2022-08-09T10:20:26.907Z,52.80
2022-08-09T10:23:20.368Z,53.10
2022-08-09T10:26:07.755Z,52.60
2022-08-09T10:28:40.145Z,51.60
2022-08-09T10:34:11.032Z,52.00
2022-08-09T10:36:54.325Z,51.40
2022-08-09T10:39:26.910Z,51.10
2022-08-09T10:41:56.123Z,49.80
2022-08-09T10:44:26.450Z,49.70
2022-08-09T10:48:16.528Z,50.00
2022-08-09T10:50:30.828Z,49.30
2022-08-09T10:53:13.969Z,49.90
2022-08-09T10:55:58.368Z,49.10
2022-08-09T10:58:37.330Z,47.40
2022-08-09T11:03:06.771Z,48.00
2022-08-09T11:04:30.195Z,47.90
2022-08-09T11:06:59.528Z,48.60
2022-08-09T11:09:48.121Z,48.70
2022-08-09T11:12:21.728Z,48.20
2022-08-09T11:15:01.719Z,48.30
2022-08-09T11:17:32.666Z,47.90
2022-08-09T11:20:22.790Z,48.30
2022-08-09T11:22:55.645Z,48.10
2022-08-09T11:25:44.922Z,47.30
2022-08-09T11:28:56.241Z,47.00
2022-08-09T11:31:49.803Z,46.50
2022-08-09T11:34:43.338Z,47.00
2022-08-09T11:37:23.791Z,47.80
2022-08-09T11:40:07.381Z,47.90
2022-08-09T11:42:50.789Z,47.30
2022-08-09T11:45:20.795Z,46.10
2022-08-09T11:47:52.269Z,45.50
2022-08-09T11:50:56.168Z,46.00
2022-08-09T11:53:21.158Z,45.90
2022-08-09T11:56:21.471Z,45.70
2022-08-09T11:59:10.706Z,45.30
2022-08-09T12:02:16.057Z,45.80
2022-08-09T12:04:32.550Z,44.50
2022-08-09T12:07:08.318Z,44.00
2022-08-09T12:09:37.038Z,44.40
2022-08-09T12:12:20.073Z,43.90
2022-08-09T12:15:07.352Z,43.00
2022-08-09T12:17:44.504Z,42.10
2022-08-09T12:20:16.329Z,40.60
2022-08-09T12:22:50.328Z,41.10
2022-08-09T12:25:36.743Z,41.80
2022-08-09T12:28:59.901Z,41.30
2022-08-09T12:31:02.940Z,41.70
2022-08-09T12:33:59.211Z,41.10
2022-08-09T12:36:31.432Z,41.00
2022-08-09T12:39:02.250Z,40.80
2022-08-09T12:41:38.326Z,41.00
2022-08-09T12:44:09.707Z,41.00
2022-08-09T12:46:40.874Z,41.50
2022-08-09T12:49:09.042Z,41.00
2022-08-09T12:51:52.828Z,40.40
2022-08-09T12:54:23.917Z,40.20
2022-08-09T12:56:54.073Z,40.10
2022-08-09T12:59:57.507Z,40.20
2022-08-09T13:02:12.938Z,40.40
2022-08-09T13:04:59.799Z,40.40
2022-08-09T13:07:51.200Z,40.20
2022-08-09T13:10:18.123Z,40.30
2022-08-09T13:13:10.104Z,39.90
2022-08-09T13:15:50.465Z,40.10
2022-08-09T13:18:19.172Z,39.00
2022-08-09T13:21:03.781Z,38.90
2022-08-09T13:24:42.602Z,38.90
2022-08-09T13:26:39.671Z,39.00
2022-08-09T13:29:15.598Z,39.00
2022-08-09T13:32:18.067Z,38.90
2022-08-09T13:34:44.979Z,38.30
2022-08-09T13:37:15.047Z,38.60
2022-08-09T13:41:54.895Z,38.60
2022-08-09T13:42:52.701Z,37.80
2022-08-09T13:45:20.460Z,38.00
2022-08-09T13:47:49.146Z,37.90
2022-08-09T13:50:30.783Z,38.30
2022-08-09T13:52:59.222Z,38.20
2022-08-09T13:55:28.941Z,38.00
2022-08-09T13:57:59.581Z,38.20
2022-08-09T14:00:29.327Z,38.30
2022-08-09T14:03:03.441Z,37.70
2022-08-09T14:05:58.910Z,38.20
2022-08-09T14:08:30.522Z,38.50
2022-08-09T14:11:00.642Z,38.90
2022-08-09T14:14:22.255Z,39.40
2022-08-09T14:16:35.107Z,38.80
2022-08-09T14:19:04.383Z,38.10
2022-08-09T14:21:31.845Z,38.40
2022-08-09T14:24:01.270Z,38.30
2022-08-09T14:26:34.171Z,38.80
2022-08-09T14:29:25.820Z,38.40
2022-08-09T14:31:55.578Z,38.50
2022-08-09T14:34:31.928Z,37.70
2022-08-09T14:37:06.023Z,38.10
2022-08-09T14:39:39.928Z,37.80
2022-08-09T14:42:30.468Z,38.20
2022-08-09T14:46:58.524Z,38.10
2022-08-09T14:47:56.834Z,37.90
2022-08-09T14:50:32.458Z,38.50
2022-08-09T14:53:02.547Z,38.00
2022-08-09T14:55:32.522Z,38.20
2022-08-09T14:58:05.128Z,38.30
2022-08-09T15:00:34.514Z,38.80
2022-08-09T15:03:06.809Z,38.30
2022-08-09T15:05:36.647Z,38.60
2022-08-09T15:08:05.896Z,38.90
2022-08-09T15:10:38.463Z,38.60
2022-08-09T15:13:08.881Z,39.00
2022-08-09T15:15:39.418Z,39.30
2022-08-09T15:18:08.340Z,39.10
2022-08-09T15:21:58.959Z,39.40
2022-08-09T15:24:02.743Z,39.20
2022-08-09T15:26:18.492Z,39.50
2022-08-09T15:28:55.794Z,39.10
2022-08-09T15:31:28.503Z,39.10
2022-08-09T15:34:17.249Z,38.90
2022-08-09T15:36:56.076Z,39.20
2022-08-09T15:39:43.764Z,38.50
2022-08-09T15:42:14.970Z,39.00
2022-08-09T15:44:42.610Z,38.90
2022-08-09T15:47:14.061Z,39.10
2022-08-09T15:50:00.355Z,39.00
2022-08-09T15:52:33.716Z,38.90
2022-08-09T15:55:08.052Z,38.60
2022-08-09T15:57:50.996Z,38.70
2022-08-09T16:00:25.669Z,39.00
2022-08-09T16:02:56.174Z,39.20
2022-08-09T16:05:47.145Z,39.20
2022-08-09T16:08:30.436Z,39.10
2022-08-09T16:11:03.557Z,39.30
2022-08-09T16:14:02.902Z,39.80
2022-08-09T16:16:20.032Z,39.40
2022-08-09T16:18:53.945Z,39.80
2022-08-09T16:21:25.691Z,39.80
2022-08-09T16:23:58.354Z,40.40
2022-08-09T16:26:35.646Z,41.10
2022-08-09T16:29:10.696Z,40.10
2022-08-09T16:32:20.316Z,40.00
2022-08-09T16:34:54.387Z,40.00
2022-08-09T16:37:54.527Z,40.00
2022-08-09T16:40:10.553Z,40.80
2022-08-09T16:42:45.612Z,40.70
2022-08-09T16:45:18.947Z,41.00
2022-08-09T16:48:42.615Z,40.90
2022-08-09T16:50:38.696Z,40.90
2022-08-09T16:53:06.585Z,40.70
2022-08-09T16:55:44.278Z,40.90
2022-08-09T16:58:25.070Z,41.00
2022-08-09T17:00:53.586Z,41.10
2022-08-09T17:03:23.015Z,41.20
2022-08-09T17:06:06.669Z,41.30
2022-08-09T17:08:45.796Z,41.70
2022-08-09T17:11:40.937Z,41.60
2022-08-09T17:14:26.017Z,41.60
2022-08-09T17:16:59.725Z,41.60
2022-08-09T17:19:47.703Z,41.50
2022-08-09T17:22:24.650Z,41.60
2022-08-09T17:25:03.273Z,41.80
2022-08-09T17:27:33.520Z,41.80
2022-08-09T17:30:03.448Z,41.80
2022-08-09T17:32:38.242Z,42.50
2022-08-09T17:35:11.263Z,41.80
2022-08-09T17:38:07.622Z,42.00
2022-08-09T17:40:31.908Z,42.10
2022-08-09T17:43:10.742Z,42.10
2022-08-09T17:46:02.632Z,42.40
2022-08-09T17:48:34.067Z,42.00
2022-08-09T17:51:10.047Z,42.40
2022-08-09T17:53:51.790Z,42.50
2022-08-09T17:56:27.668Z,42.70
2022-08-09T17:59:09.254Z,42.80
2022-08-09T18:01:40.817Z,42.90
2022-08-09T18:04:27.137Z,43.20
2022-08-09T18:06:55.771Z,43.40
2022-08-09T18:09:40.774Z,43.70
2022-08-09T18:12:14.802Z,43.70
2022-08-09T18:14:53.648Z,44.00
2022-08-09T18:17:27.409Z,44.20
2022-08-09T18:21:01.228Z,44.40
2022-08-09T18:23:04.887Z,44.70
2022-08-09T18:25:52.682Z,45.00
2022-08-09T18:30:39.644Z,45.20
2022-08-09T18:31:12.017Z,45.40
2022-08-09T18:33:40.312Z,45.60
2022-08-09T18:36:14.171Z,45.80
2022-08-09T18:38:55.146Z,46.00
2022-08-09T18:41:34.345Z,46.10
2022-08-09T18:44:13.143Z,46.30
2022-08-09T18:46:50.611Z,46.50
2022-08-09T18:49:32.286Z,46.60
2022-08-09T18:52:09.054Z,46.90
2022-08-09T18:54:42.036Z,47.70
2022-08-09T18:57:17.470Z,47.30
2022-08-09T18:59:51.201Z,47.60
2022-08-09T19:02:24.061Z,47.90
2022-08-09T19:05:04.197Z,48.10
2022-08-09T19:08:04.281Z,48.30
2022-08-09T19:10:37.045Z,48.40
2022-08-09T19:13:20.886Z,48.60
2022-08-09T19:15:56.431Z,48.70
2022-08-09T19:18:33.351Z,49.00
2022-08-09T19:21:09.604Z,49.10
2022-08-09T19:24:36.524Z,49.20
2022-08-09T19:26:32.271Z,49.40
2022-08-09T19:29:15.515Z,49.50
2022-08-09T19:31:49.579Z,49.70
2022-08-09T19:34:23.005Z,49.70
2022-08-09T19:36:53.508Z,50.00
2022-08-09T19:39:29.083Z,50.10
2022-08-09T19:42:15.003Z,50.20
2022-08-09T19:44:50.740Z,50.40
2022-08-09T19:47:22.946Z,50.50
2022-08-09T19:50:06.929Z,50.70
2022-08-09T19:52:38.229Z,50.80
2022-08-09T19:55:19.582Z,51.00
2022-08-09T19:57:53.442Z,51.10
2022-08-09T20:00:20.906Z,51.20
2022-08-09T20:04:27.840Z,51.30
2022-08-09T20:05:46.984Z,51.40
2022-08-09T20:08:25.073Z,52.10
2022-08-09T20:11:04.739Z,51.60
2022-08-09T20:13:36.951Z,51.80
2022-08-09T20:16:36.456Z,52.60
2022-08-09T20:19:42.400Z,52.00
2022-08-09T20:21:56.025Z,52.20
2022-08-09T20:24:32.082Z,52.30
2022-08-09T20:27:02.977Z,52.50
2022-08-09T20:29:38.780Z,52.70
2022-08-09T20:32:30.131Z,52.80
2022-08-09T20:34:59.355Z,52.90
2022-08-09T20:37:37.834Z,53.00
2022-08-09T20:40:24.678Z,53.20
2022-08-09T20:43:12.123Z,53.30
2022-08-09T20:45:59.345Z,53.50
2022-08-09T20:48:31.358Z,53.50
2022-08-09T20:51:00.938Z,53.70
2022-08-09T20:53:37.262Z,53.80
2022-08-09T20:56:20.687Z,54.00
2022-08-09T20:58:57.770Z,54.10
2022-08-09T21:01:34.342Z,54.30
2022-08-09T21:05:53.118Z,54.50
2022-08-09T21:07:12.320Z,54.70
2022-08-09T21:09:56.884Z,54.80
2022-08-09T21:15:27.403Z,55.20
2022-08-09T21:18:21.120Z,55.30
2022-08-09T21:20:54.338Z,55.50
2022-08-09T21:23:47.244Z,55.60
2022-08-09T21:26:10.026Z,55.80
2022-08-09T21:28:37.700Z,56.00
2022-08-09T21:31:13.693Z,56.10
2022-08-09T21:33:44.420Z,56.40
2022-08-09T21:36:12.950Z,56.40
2022-08-09T21:38:40.932Z,56.60
2022-08-09T21:41:08.588Z,56.70
2022-08-09T21:43:56.699Z,56.90
2022-08-09T21:46:24.163Z,57.00
2022-08-09T21:48:53.828Z,57.10
2022-08-09T21:51:24.541Z,57.30
2022-08-09T21:54:03.900Z,57.40
2022-08-09T21:56:33.815Z,57.50
2022-08-09T21:59:14.199Z,57.80
2022-08-09T22:02:00.422Z,57.90
2022-08-09T22:04:56.991Z,57.90
2022-08-09T22:07:35.487Z,58.10
2022-08-09T22:10:07.729Z,58.20
2022-08-09T22:12:37.295Z,58.40
2022-08-09T22:15:13.837Z,58.40
2022-08-09T22:17:45.966Z,58.50
2022-08-09T22:20:21.493Z,58.60
2022-08-09T22:22:49.429Z,58.80
2022-08-09T22:26:06.103Z,58.90
2022-08-09T22:28:07.211Z,59.00
2022-08-09T22:30:36.706Z,59.10
2022-08-09T22:33:09.414Z,59.30
2022-08-09T22:36:02.228Z,59.40
2022-08-09T22:38:26.336Z,59.70
2022-08-09T22:40:57.353Z,59.70
2022-08-09T22:44:01.367Z,59.80
2022-08-09T22:48:14.396Z,60.00
2022-08-09T22:49:09.648Z,60.00
2022-08-09T22:51:43.321Z,60.10
2022-08-09T22:54:21.087Z,60.30
2022-08-09T22:56:50.821Z,60.40
2022-08-09T22:59:56.740Z,60.60
2022-08-09T23:02:09.417Z,60.70
2022-08-09T23:04:38.369Z,60.90
2022-08-09T23:07:31.037Z,61.00
2022-08-09T23:10:12.708Z,61.20
2022-08-09T23:12:40.082Z,61.40
2022-08-09T23:15:07.738Z,61.50
2022-08-09T23:17:35.381Z,61.70
2022-08-09T23:20:07.175Z,61.60
2022-08-09T23:22:35.769Z,61.80
2022-08-09T23:25:07.275Z,61.90
2022-08-09T23:27:35.060Z,62.10
2022-08-09T23:30:02.883Z,62.10
2022-08-09T23:32:30.506Z,62.30
2022-08-09T23:34:58.018Z,62.40
2022-08-09T23:37:25.485Z,62.60
2022-08-09T23:39:53.139Z,62.70
2022-08-09T23:42:20.617Z,62.80
2022-08-09T23:44:47.953Z,63.30
2022-08-09T23:47:15.455Z,62.80
2022-08-09T23:49:42.906Z,62.90
2022-08-09T23:52:10.316Z,63.10
2022-08-09T23:54:38.740Z,63.10
2022-08-09T23:57:10.066Z,63.10
2022-08-09T23:59:57.988Z,63.30
